Truth Or Consequences Municipal Airport
KTCS : now visible

Airfield :











YOU CAN JOIN US ON...

 
LOGIN :

Register | Disclaimer

   EN    FR    IT 

 









Legend :    VFR   Marginal VFR   IFR   Intensive IFR   Very Intensive IFR
Visi :
Ceiling :
>= 8 km
>= 3000ft
5 to 8 km
1000 to 3000 ft
1500m to 5 km
500 to 1000 ft
800 to 1500m
200 to 500 ft
< 800m
< 200 ft
Symbols :   Thunderstorms  Fog  Heavy snow  Heavy precipitations  Wind > 20 kt






- Airport Elevation : 4853 ft


KTCS - Truth Or Consequences Municipal

CURRENT METAR :
  • 192053Z AUTO 12009G14KT 10SM CLR 33/11 A3018 RMK AO2 SLP125 T03280111 58023

EXPIRED METARs :
  • 191953Z AUTO 00000KT 10SM CLR 31/11 A3021 RMK AO2 SLP135 T03060106
  • 191853Z AUTO 09007G16KT 10SM CLR 32/12 A3024 RMK AO2 SLP143 T03170122
  • 191753Z AUTO VRB06KT 10SM CLR 29/12 A3026 RMK AO2 SLP152 T02940122 10294 20200 58006 $
  • 191653Z AUTO VRB05KT 10SM CLR 27/13 A3027 RMK AO2 SLP157 T02720133 $

TAF KTCS
Valid from the 19 at 18:00 until the 20 at 18:00 UTC


191725Z 1918/2018 VRB05KT P6SM SCT090
TEMPO 1922/2001 4SM TSRA OVC080CB
FM200200 26009KT P6SM SCT100 BKN200
PROB30 2003/2005 4SM TSRA OVC080CB
FM200500 35006KT P6SM SCT100 BKN200
KZAB FIR / North America



MET'MAP, your aeronautical weather chart ! - Copyright ORBIFLY December 2007 - Disclaimer

ORBIFLY MET'MAP TEAM :

Programming & Development : Alexandra Zaïnal
Original concept : Baudouin d'Aumeries
Technical & hardware support : Manuel Goepfert
Assistance : Marc-Olivier Méhu




SOURCES & CREDITS :

   NOAA       Earth
Advisory